Terminal Aerodrome Forecast
Issued by NWS Mt. Holly, NJ

Home | Current Version | Previous Version | Text Only | Print | Product List | Glossary On
Versions: 1 2 3 4 5 6 7 8 9 10 11 12 13 14 15 16 17 18 19 20 21 22 23
129
FTUS41 KPHI 272050 AAA
TAFACY
TAF AMD
KACY 272050Z 2721/2818 19011G21KT P6SM OVC070
     FM272300 17003KT P6SM OVC070
      TEMPO 2809/2812 5SM BR
     FM281500 18008KT P6SM SCT050 BKN200=

USA.gov is the U.S. government's official web portal to all federal, state and local government web resources and services.